sensor_id;sensor_type;location;lat;lon;timestamp;P1;durP1;ratioP1;P2;durP2;ratioP2
74369;SDS011;71062;44.520;11.342;2023-11-19T00:01:22;5.60;;;2.97;;
74369;SDS011;71062;44.520;11.342;2023-11-19T00:03:48;5.45;;;2.78;;
74369;SDS011;71062;44.520;11.342;2023-11-19T00:06:14;7.13;;;2.83;;
74369;SDS011;71062;44.520;11.342;2023-11-19T00:08:41;4.82;;;2.60;;
74369;SDS011;71062;44.520;11.342;2023-11-19T00:11:08;6.45;;;2.80;;
74369;SDS011;71062;44.520;11.342;2023-11-19T00:13:34;5.82;;;2.78;;
74369;SDS011;71062;44.520;11.342;2023-11-19T00:16:00;6.18;;;2.85;;
74369;SDS011;71062;44.520;11.342;2023-11-19T00:18:25;6.03;;;2.80;;
74369;SDS011;71062;44.520;11.342;2023-11-19T00:20:51;10.30;;;2.85;;
74369;SDS011;71062;44.520;11.342;2023-11-19T00:23:16;4.38;;;2.58;;
74369;SDS011;71062;44.520;11.342;2023-11-19T00:25:42;6.63;;;2.90;;
74369;SDS011;71062;44.520;11.342;2023-11-19T00:28:07;5.63;;;2.67;;
74369;SDS011;71062;44.520;11.342;2023-11-19T00:30:33;6.25;;;2.78;;
74369;SDS011;71062;44.520;11.342;2023-11-19T00:32:59;5.50;;;2.70;;
74369;SDS011;71062;44.520;11.342;2023-11-19T00:35:24;5.13;;;2.53;;
74369;SDS011;71062;44.520;11.342;2023-11-19T00:37:50;6.43;;;2.42;;
74369;SDS011;71062;44.520;11.342;2023-11-19T00:40:16;6.32;;;3.00;;
74369;SDS011;71062;44.520;11.342;2023-11-19T00:42:43;5.65;;;2.70;;
74369;SDS011;71062;44.520;11.342;2023-11-19T00:45:09;8.52;;;2.80;;
74369;SDS011;71062;44.520;11.342;2023-11-19T00:47:35;6.13;;;2.78;;
74369;SDS011;71062;44.520;11.342;2023-11-19T00:50:02;7.45;;;2.70;;
74369;SDS011;71062;44.520;11.342;2023-11-19T00:52:28;4.88;;;2.72;;
74369;SDS011;71062;44.520;11.342;2023-11-19T00:54:54;6.22;;;2.70;;
74369;SDS011;71062;44.520;11.342;2023-11-19T00:57:19;7.25;;;2.70;;
74369;SDS011;71062;44.520;11.342;2023-11-19T00:59:45;6.95;;;3.10;;
74369;SDS011;71062;44.520;11.342;2023-11-19T01:02:12;6.50;;;3.33;;
74369;SDS011;71062;44.520;11.342;2023-11-19T01:04:39;5.95;;;2.92;;
74369;SDS011;71062;44.520;11.342;2023-11-19T01:07:05;7.65;;;2.70;;
74369;SDS011;71062;44.520;11.342;2023-11-19T01:09:37;6.10;;;2.60;;
74369;SDS011;71062;44.520;11.342;2023-11-19T01:12:03;6.07;;;2.97;;
74369;SDS011;71062;44.520;11.342;2023-11-19T01:14:29;6.15;;;3.20;;
74369;SDS011;71062;44.520;11.342;2023-11-19T01:16:55;5.70;;;3.00;;
74369;SDS011;71062;44.520;11.342;2023-11-19T01:19:24;5.35;;;2.30;;
74369;SDS011;71062;44.520;11.342;2023-11-19T01:21:50;5.82;;;2.63;;
74369;SDS011;71062;44.520;11.342;2023-11-19T01:24:16;5.57;;;2.72;;
74369;SDS011;71062;44.520;11.342;2023-11-19T01:26:43;6.32;;;2.80;;
74369;SDS011;71062;44.520;11.342;2023-11-19T01:29:11;6.32;;;2.97;;
74369;SDS011;71062;44.520;11.342;2023-11-19T01:31:47;9.05;;;3.00;;
74369;SDS011;71062;44.520;11.342;2023-11-19T01:34:13;7.43;;;2.90;;
74369;SDS011;71062;44.520;11.342;2023-11-19T01:36:39;5.68;;;2.78;;
74369;SDS011;71062;44.520;11.342;2023-11-19T01:39:04;5.90;;;2.63;;
74369;SDS011;71062;44.520;11.342;2023-11-19T01:41:34;6.68;;;3.10;;
74369;SDS011;71062;44.520;11.342;2023-11-19T01:44:01;6.72;;;3.05;;
74369;SDS011;71062;44.520;11.342;2023-11-19T01:46:26;5.05;;;2.50;;
74369;SDS011;71062;44.520;11.342;2023-11-19T01:48:52;5.55;;;2.70;;
74369;SDS011;71062;44.520;11.342;2023-11-19T01:51:19;7.18;;;2.83;;
74369;SDS011;71062;44.520;11.342;2023-11-19T01:53:46;7.55;;;3.13;;
74369;SDS011;71062;44.520;11.342;2023-11-19T01:56:14;8.18;;;2.63;;
74369;SDS011;71062;44.520;11.342;2023-11-19T01:58:41;5.13;;;2.90;;
74369;SDS011;71062;44.520;11.342;2023-11-19T02:01:09;6.53;;;2.85;;
74369;SDS011;71062;44.520;11.342;2023-11-19T02:03:36;5.07;;;2.70;;
74369;SDS011;71062;44.520;11.342;2023-11-19T02:06:05;5.50;;;2.63;;
74369;SDS011;71062;44.520;11.342;2023-11-19T02:08:31;6.63;;;2.83;;
74369;SDS011;71062;44.520;11.342;2023-11-19T02:10:57;8.40;;;3.28;;
74369;SDS011;71062;44.520;11.342;2023-11-19T02:13:24;7.20;;;3.15;;
74369;SDS011;71062;44.520;11.342;2023-11-19T02:15:51;6.07;;;3.35;;
74369;SDS011;71062;44.520;11.342;2023-11-19T02:18:17;4.88;;;2.50;;
74369;SDS011;71062;44.520;11.342;2023-11-19T02:20:44;4.88;;;2.50;;
74369;SDS011;71062;44.520;11.342;2023-11-19T02:23:10;8.02;;;2.65;;
74369;SDS011;71062;44.520;11.342;2023-11-19T02:25:35;6.43;;;3.20;;
74369;SDS011;71062;44.520;11.342;2023-11-19T02:28:03;6.32;;;3.08;;
74369;SDS011;71062;44.520;11.342;2023-11-19T02:30:31;5.85;;;2.80;;
74369;SDS011;71062;44.520;11.342;2023-11-19T02:32:57;7.28;;;2.83;;
74369;SDS011;71062;44.520;11.342;2023-11-19T02:35:30;5.63;;;2.55;;
74369;SDS011;71062;44.520;11.342;2023-11-19T02:37:58;5.03;;;2.53;;
74369;SDS011;71062;44.520;11.342;2023-11-19T02:40:34;5.78;;;2.33;;
74369;SDS011;71062;44.520;11.342;2023-11-19T02:43:00;4.93;;;2.40;;
74369;SDS011;71062;44.520;11.342;2023-11-19T02:45:26;5.70;;;3.00;;
74369;SDS011;71062;44.520;11.342;2023-11-19T02:47:53;4.47;;;2.42;;
74369;SDS011;71062;44.520;11.342;2023-11-19T02:50:20;7.50;;;2.83;;
74369;SDS011;71062;44.520;11.342;2023-11-19T02:52:53;5.60;;;2.80;;
74369;SDS011;71062;44.520;11.342;2023-11-19T02:55:21;6.50;;;2.53;;
74369;SDS011;71062;44.520;11.342;2023-11-19T02:57:49;5.90;;;2.60;;
74369;SDS011;71062;44.520;11.342;2023-11-19T03:00:17;5.38;;;2.55;;
74369;SDS011;71062;44.520;11.342;2023-11-19T03:02:44;5.72;;;2.53;;
74369;SDS011;71062;44.520;11.342;2023-11-19T03:05:19;5.85;;;2.72;;
74369;SDS011;71062;44.520;11.342;2023-11-19T03:07:45;6.35;;;2.85;;
74369;SDS011;71062;44.520;11.342;2023-11-19T03:10:10;4.88;;;2.50;;
74369;SDS011;71062;44.520;11.342;2023-11-19T03:12:43;6.05;;;3.10;;
74369;SDS011;71062;44.520;11.342;2023-11-19T03:15:10;6.03;;;2.70;;
74369;SDS011;71062;44.520;11.342;2023-11-19T03:17:40;7.57;;;2.72;;
74369;SDS011;71062;44.520;11.342;2023-11-19T03:20:07;7.05;;;2.78;;
74369;SDS011;71062;44.520;11.342;2023-11-19T03:22:43;5.95;;;2.78;;
74369;SDS011;71062;44.520;11.342;2023-11-19T03:25:12;5.05;;;2.55;;
74369;SDS011;71062;44.520;11.342;2023-11-19T03:27:38;8.60;;;2.72;;
74369;SDS011;71062;44.520;11.342;2023-11-19T03:30:08;7.63;;;2.92;;
74369;SDS011;71062;44.520;11.342;2023-11-19T03:32:37;5.53;;;2.90;;
74369;SDS011;71062;44.520;11.342;2023-11-19T03:35:04;10.27;;;3.08;;
74369;SDS011;71062;44.520;11.342;2023-11-19T03:37:32;5.22;;;2.75;;
74369;SDS011;71062;44.520;11.342;2023-11-19T03:39:58;5.45;;;2.70;;
74369;SDS011;71062;44.520;11.342;2023-11-19T03:42:25;7.28;;;2.83;;
74369;SDS011;71062;44.520;11.342;2023-11-19T03:44:52;5.32;;;2.80;;
74369;SDS011;71062;44.520;11.342;2023-11-19T03:47:19;7.40;;;2.65;;
74369;SDS011;71062;44.520;11.342;2023-11-19T03:49:50;6.82;;;2.33;;
74369;SDS011;71062;44.520;11.342;2023-11-19T03:52:19;6.07;;;2.53;;
74369;SDS011;71062;44.520;11.342;2023-11-19T03:54:45;7.38;;;2.67;;
74369;SDS011;71062;44.520;11.342;2023-11-19T03:57:14;7.25;;;2.80;;
74369;SDS011;71062;44.520;11.342;2023-11-19T03:59:41;6.15;;;2.60;;
74369;SDS011;71062;44.520;11.342;2023-11-19T04:02:06;5.90;;;2.75;;
74369;SDS011;71062;44.520;11.342;2023-11-19T04:04:32;7.50;;;2.85;;
74369;SDS011;71062;44.520;11.342;2023-11-19T04:07:00;7.95;;;2.88;;
74369;SDS011;71062;44.520;11.342;2023-11-19T04:09:26;5.03;;;2.53;;
74369;SDS011;71062;44.520;11.342;2023-11-19T04:11:52;5.18;;;2.60;;
74369;SDS011;71062;44.520;11.342;2023-11-19T04:14:17;5.47;;;2.30;;
74369;SDS011;71062;44.520;11.342;2023-11-19T04:16:43;6.60;;;2.70;;
74369;SDS011;71062;44.520;11.342;2023-11-19T04:19:13;8.57;;;2.75;;
74369;SDS011;71062;44.520;11.342;2023-11-19T04:21:41;6.88;;;2.78;;
74369;SDS011;71062;44.520;11.342;2023-11-19T04:24:07;6.25;;;3.10;;
74369;SDS011;71062;44.520;11.342;2023-11-19T04:26:42;6.07;;;2.55;;
74369;SDS011;71062;44.520;11.342;2023-11-19T04:29:13;6.25;;;2.65;;
74369;SDS011;71062;44.520;11.342;2023-11-19T04:31:43;9.95;;;2.83;;
74369;SDS011;71062;44.520;11.342;2023-11-19T04:34:12;4.45;;;2.55;;
74369;SDS011;71062;44.520;11.342;2023-11-19T04:36:38;5.78;;;2.80;;
74369;SDS011;71062;44.520;11.342;2023-11-19T04:39:04;9.70;;;3.08;;
74369;SDS011;71062;44.520;11.342;2023-11-19T04:41:46;5.32;;;2.15;;
74369;SDS011;71062;44.520;11.342;2023-11-19T04:44:16;5.13;;;2.45;;
74369;SDS011;71062;44.520;11.342;2023-11-19T04:46:42;5.45;;;2.40;;
74369;SDS011;71062;44.520;11.342;2023-11-19T04:49:09;5.15;;;2.50;;
74369;SDS011;71062;44.520;11.342;2023-11-19T04:51:45;5.68;;;2.72;;
74369;SDS011;71062;44.520;11.342;2023-11-19T04:54:14;8.00;;;2.78;;
74369;SDS011;71062;44.520;11.342;2023-11-19T04:56:39;4.38;;;2.35;;
74369;SDS011;71062;44.520;11.342;2023-11-19T04:59:05;5.07;;;2.55;;
74369;SDS011;71062;44.520;11.342;2023-11-19T05:01:32;5.18;;;2.22;;
74369;SDS011;71062;44.520;11.342;2023-11-19T05:03:59;4.88;;;2.20;;
74369;SDS011;71062;44.520;11.342;2023-11-19T05:06:28;5.78;;;2.58;;
74369;SDS011;71062;44.520;11.342;2023-11-19T05:08:58;5.50;;;2.65;;
74369;SDS011;71062;44.520;11.342;2023-11-19T05:11:30;5.78;;;2.45;;
74369;SDS011;71062;44.520;11.342;2023-11-19T05:13:56;5.03;;;2.63;;
74369;SDS011;71062;44.520;11.342;2023-11-19T05:16:22;6.47;;;1.98;;
74369;SDS011;71062;44.520;11.342;2023-11-19T05:18:47;4.93;;;2.15;;
74369;SDS011;71062;44.520;11.342;2023-11-19T05:21:13;4.97;;;2.22;;
74369;SDS011;71062;44.520;11.342;2023-11-19T05:23:39;5.45;;;2.20;;
74369;SDS011;71062;44.520;11.342;2023-11-19T05:26:07;5.88;;;2.47;;
74369;SDS011;71062;44.520;11.342;2023-11-19T05:28:32;5.03;;;2.15;;
74369;SDS011;71062;44.520;11.342;2023-11-19T05:30:58;6.25;;;2.83;;
74369;SDS011;71062;44.520;11.342;2023-11-19T05:33:23;4.53;;;2.08;;
74369;SDS011;71062;44.520;11.342;2023-11-19T05:35:49;4.18;;;2.00;;
74369;SDS011;71062;44.520;11.342;2023-11-19T05:38:15;5.72;;;2.40;;
74369;SDS011;71062;44.520;11.342;2023-11-19T05:40:41;3.85;;;1.88;;
74369;SDS011;71062;44.520;11.342;2023-11-19T05:43:07;4.35;;;2.35;;
74369;SDS011;71062;44.520;11.342;2023-11-19T05:45:32;4.05;;;2.22;;
74369;SDS011;71062;44.520;11.342;2023-11-19T05:47:58;6.80;;;2.70;;
74369;SDS011;71062;44.520;11.342;2023-11-19T05:50:24;4.05;;;2.20;;
74369;SDS011;71062;44.520;11.342;2023-11-19T05:52:50;5.80;;;2.35;;
74369;SDS011;71062;44.520;11.342;2023-11-19T05:55:18;6.38;;;2.40;;
74369;SDS011;71062;44.520;11.342;2023-11-19T05:57:44;4.07;;;2.10;;
74369;SDS011;71062;44.520;11.342;2023-11-19T06:00:10;3.38;;;2.08;;
74369;SDS011;71062;44.520;11.342;2023-11-19T06:02:41;4.15;;;2.25;;
74369;SDS011;71062;44.520;11.342;2023-11-19T06:05:07;6.57;;;2.20;;
74369;SDS011;71062;44.520;11.342;2023-11-19T06:07:34;7.82;;;2.05;;
74369;SDS011;71062;44.520;11.342;2023-11-19T06:10:02;5.15;;;2.05;;
74369;SDS011;71062;44.520;11.342;2023-11-19T06:12:33;3.55;;;2.10;;
74369;SDS011;71062;44.520;11.342;2023-11-19T06:15:06;4.03;;;2.30;;
74369;SDS011;71062;44.520;11.342;2023-11-19T06:17:34;4.68;;;1.77;;
74369;SDS011;71062;44.520;11.342;2023-11-19T06:19:59;4.65;;;2.25;;
74369;SDS011;71062;44.520;11.342;2023-11-19T06:22:25;4.30;;;2.28;;
74369;SDS011;71062;44.520;11.342;2023-11-19T06:24:51;3.70;;;2.13;;
74369;SDS011;71062;44.520;11.342;2023-11-19T06:27:17;4.40;;;2.42;;
74369;SDS011;71062;44.520;11.342;2023-11-19T06:29:43;5.50;;;2.25;;
74369;SDS011;71062;44.520;11.342;2023-11-19T06:32:08;4.38;;;2.20;;
74369;SDS011;71062;44.520;11.342;2023-11-19T06:34:34;6.65;;;2.92;;
74369;SDS011;71062;44.520;11.342;2023-11-19T06:37:00;4.93;;;2.22;;
74369;SDS011;71062;44.520;11.342;2023-11-19T06:39:28;3.83;;;1.98;;
74369;SDS011;71062;44.520;11.342;2023-11-19T06:41:54;4.82;;;2.05;;
74369;SDS011;71062;44.520;11.342;2023-11-19T06:44:19;3.20;;;1.80;;
74369;SDS011;71062;44.520;11.342;2023-11-19T06:46:45;4.90;;;2.10;;
74369;SDS011;71062;44.520;11.342;2023-11-19T06:49:11;5.32;;;2.05;;
74369;SDS011;71062;44.520;11.342;2023-11-19T06:51:41;5.57;;;2.17;;
74369;SDS011;71062;44.520;11.342;2023-11-19T06:54:09;8.38;;;2.53;;
74369;SDS011;71062;44.520;11.342;2023-11-19T06:56:34;5.18;;;2.40;;
74369;SDS011;71062;44.520;11.342;2023-11-19T06:59:00;5.53;;;2.47;;
74369;SDS011;71062;44.520;11.342;2023-11-19T07:01:25;6.85;;;2.30;;
74369;SDS011;71062;44.520;11.342;2023-11-19T07:03:51;4.95;;;2.22;;
74369;SDS011;71062;44.520;11.342;2023-11-19T07:06:17;4.68;;;2.38;;
74369;SDS011;71062;44.520;11.342;2023-11-19T07:08:43;5.85;;;2.65;;
74369;SDS011;71062;44.520;11.342;2023-11-19T07:11:12;6.45;;;2.60;;
74369;SDS011;71062;44.520;11.342;2023-11-19T07:13:40;4.32;;;2.30;;
74369;SDS011;71062;44.520;11.342;2023-11-19T07:16:08;7.00;;;2.50;;
74369;SDS011;71062;44.520;11.342;2023-11-19T07:18:37;4.20;;;2.42;;
74369;SDS011;71062;44.520;11.342;2023-11-19T07:21:04;5.55;;;2.90;;
74369;SDS011;71062;44.520;11.342;2023-11-19T07:23:30;7.43;;;2.85;;
74369;SDS011;71062;44.520;11.342;2023-11-19T07:25:56;7.35;;;3.00;;
74369;SDS011;71062;44.520;11.342;2023-11-19T07:28:27;7.35;;;2.78;;
74369;SDS011;71062;44.520;11.342;2023-11-19T07:30:54;5.95;;;2.65;;
74369;SDS011;71062;44.520;11.342;2023-11-19T07:33:21;6.65;;;2.95;;
74369;SDS011;71062;44.520;11.342;2023-11-19T07:35:47;4.65;;;2.28;;
74369;SDS011;71062;44.520;11.342;2023-11-19T07:38:14;5.55;;;2.60;;
74369;SDS011;71062;44.520;11.342;2023-11-19T07:40:39;7.70;;;2.50;;
74369;SDS011;71062;44.520;11.342;2023-11-19T07:43:05;3.50;;;2.22;;
74369;SDS011;71062;44.520;11.342;2023-11-19T07:45:32;5.07;;;2.65;;
74369;SDS011;71062;44.520;11.342;2023-11-19T07:47:58;5.22;;;2.53;;
74369;SDS011;71062;44.520;11.342;2023-11-19T07:50:24;6.00;;;2.72;;
74369;SDS011;71062;44.520;11.342;2023-11-19T07:52:50;6.95;;;2.95;;
74369;SDS011;71062;44.520;11.342;2023-11-19T07:55:16;5.50;;;2.60;;
74369;SDS011;71062;44.520;11.342;2023-11-19T07:57:41;4.68;;;2.65;;
74369;SDS011;71062;44.520;11.342;2023-11-19T08:00:07;6.45;;;3.22;;
74369;SDS011;71062;44.520;11.342;2023-11-19T08:02:37;5.00;;;2.85;;
74369;SDS011;71062;44.520;11.342;2023-11-19T08:05:04;5.38;;;2.60;;
74369;SDS011;71062;44.520;11.342;2023-11-19T08:07:29;6.13;;;2.42;;
74369;SDS011;71062;44.520;11.342;2023-11-19T08:09:56;4.57;;;2.35;;
74369;SDS011;71062;44.520;11.342;2023-11-19T08:12:22;5.30;;;2.63;;
74369;SDS011;71062;44.520;11.342;2023-11-19T08:14:48;4.38;;;2.28;;
74369;SDS011;71062;44.520;11.342;2023-11-19T08:17:14;5.68;;;2.50;;
74369;SDS011;71062;44.520;11.342;2023-11-19T08:19:41;7.35;;;2.40;;
74369;SDS011;71062;44.520;11.342;2023-11-19T08:22:06;5.07;;;2.70;;
74369;SDS011;71062;44.520;11.342;2023-11-19T08:24:32;5.75;;;2.65;;
74369;SDS011;71062;44.520;11.342;2023-11-19T08:26:58;5.68;;;2.40;;
74369;SDS011;71062;44.520;11.342;2023-11-19T08:29:23;4.22;;;2.15;;
74369;SDS011;71062;44.520;11.342;2023-11-19T08:31:49;3.95;;;2.08;;
74369;SDS011;71062;44.520;11.342;2023-11-19T08:34:15;7.32;;;2.35;;
74369;SDS011;71062;44.520;11.342;2023-11-19T08:36:41;5.47;;;2.22;;
74369;SDS011;71062;44.520;11.342;2023-11-19T08:39:06;5.63;;;2.20;;
74369;SDS011;71062;44.520;11.342;2023-11-19T08:41:33;5.05;;;2.10;;
74369;SDS011;71062;44.520;11.342;2023-11-19T08:43:59;5.38;;;2.30;;
74369;SDS011;71062;44.520;11.342;2023-11-19T08:46:25;4.28;;;1.48;;
74369;SDS011;71062;44.520;11.342;2023-11-19T08:48:51;5.22;;;2.10;;
74369;SDS011;71062;44.520;11.342;2023-11-19T08:51:17;4.57;;;2.15;;
74369;SDS011;71062;44.520;11.342;2023-11-19T08:53:43;7.03;;;2.30;;
74369;SDS011;71062;44.520;11.342;2023-11-19T08:56:08;3.90;;;1.88;;
74369;SDS011;71062;44.520;11.342;2023-11-19T08:58:37;3.25;;;1.77;;
74369;SDS011;71062;44.520;11.342;2023-11-19T09:01:02;4.35;;;1.67;;
74369;SDS011;71062;44.520;11.342;2023-11-19T09:03:30;3.42;;;1.90;;
74369;SDS011;71062;44.520;11.342;2023-11-19T09:05:56;3.92;;;1.40;;
74369;SDS011;71062;44.520;11.342;2023-11-19T09:08:22;3.58;;;1.98;;
74369;SDS011;71062;44.520;11.342;2023-11-19T09:10:48;4.18;;;1.90;;
74369;SDS011;71062;44.520;11.342;2023-11-19T09:13:13;3.95;;;1.75;;
74369;SDS011;71062;44.520;11.342;2023-11-19T09:15:40;4.18;;;1.73;;
74369;SDS011;71062;44.520;11.342;2023-11-19T09:18:07;3.53;;;1.60;;
74369;SDS011;71062;44.520;11.342;2023-11-19T09:20:33;4.22;;;1.65;;
74369;SDS011;71062;44.520;11.342;2023-11-19T09:23:03;3.78;;;1.40;;
74369;SDS011;71062;44.520;11.342;2023-11-19T09:25:30;3.80;;;1.92;;
74369;SDS011;71062;44.520;11.342;2023-11-19T09:27:55;4.38;;;1.85;;
74369;SDS011;71062;44.520;11.342;2023-11-19T09:30:21;2.97;;;1.70;;
74369;SDS011;71062;44.520;11.342;2023-11-19T09:32:47;5.00;;;2.10;;
74369;SDS011;71062;44.520;11.342;2023-11-19T09:35:13;5.03;;;2.00;;
74369;SDS011;71062;44.520;11.342;2023-11-19T09:37:40;6.10;;;1.88;;
74369;SDS011;71062;44.520;11.342;2023-11-19T09:40:05;4.93;;;2.15;;
74369;SDS011;71062;44.520;11.342;2023-11-19T09:42:43;4.32;;;2.22;;
74369;SDS011;71062;44.520;11.342;2023-11-19T09:45:17;4.82;;;2.35;;
74369;SDS011;71062;44.520;11.342;2023-11-19T09:47:46;6.97;;;2.33;;
74369;SDS011;71062;44.520;11.342;2023-11-19T09:50:21;6.90;;;2.33;;
74369;SDS011;71062;44.520;11.342;2023-11-19T09:52:47;5.53;;;2.55;;
74369;SDS011;71062;44.520;11.342;2023-11-19T09:55:12;5.78;;;2.95;;
74369;SDS011;71062;44.520;11.342;2023-11-19T09:57:39;4.38;;;2.40;;
74369;SDS011;71062;44.520;11.342;2023-11-19T10:00:06;3.72;;;2.05;;
74369;SDS011;71062;44.520;11.342;2023-11-19T10:05:02;4.45;;;2.15;;
74369;SDS011;71062;44.520;11.342;2023-11-19T10:07:31;5.40;;;2.22;;
74369;SDS011;71062;44.520;11.342;2023-11-19T10:09:58;4.72;;;2.28;;
74369;SDS011;71062;44.520;11.342;2023-11-19T10:12:26;6.18;;;2.20;;
74369;SDS011;71062;44.520;11.342;2023-11-19T10:14:53;4.00;;;2.50;;
74369;SDS011;71062;44.520;11.342;2023-11-19T10:17:21;4.82;;;2.20;;
74369;SDS011;71062;44.520;11.342;2023-11-19T10:19:47;5.82;;;2.25;;
74369;SDS011;71062;44.520;11.342;2023-11-19T10:22:13;3.95;;;2.30;;
74369;SDS011;71062;44.520;11.342;2023-11-19T10:24:41;5.25;;;2.67;;
74369;SDS011;71062;44.520;11.342;2023-11-19T10:27:07;6.00;;;2.10;;
74369;SDS011;71062;44.520;11.342;2023-11-19T10:29:36;6.68;;;2.75;;
74369;SDS011;71062;44.520;11.342;2023-11-19T10:32:04;5.63;;;2.58;;
74369;SDS011;71062;44.520;11.342;2023-11-19T10:34:30;5.32;;;3.00;;
74369;SDS011;71062;44.520;11.342;2023-11-19T10:36:55;3.72;;;2.22;;
74369;SDS011;71062;44.520;11.342;2023-11-19T10:39:21;5.35;;;2.58;;
74369;SDS011;71062;44.520;11.342;2023-11-19T10:41:49;6.32;;;2.60;;
74369;SDS011;71062;44.520;11.342;2023-11-19T10:44:34;6.07;;;2.75;;
74369;SDS011;71062;44.520;11.342;2023-11-19T10:47:01;7.85;;;2.95;;
74369;SDS011;71062;44.520;11.342;2023-11-19T10:49:26;5.78;;;2.72;;
74369;SDS011;71062;44.520;11.342;2023-11-19T10:51:52;7.22;;;3.10;;
74369;SDS011;71062;44.520;11.342;2023-11-19T10:54:22;5.70;;;2.95;;
74369;SDS011;71062;44.520;11.342;2023-11-19T10:56:50;6.75;;;2.30;;
74369;SDS011;71062;44.520;11.342;2023-11-19T10:59:21;5.88;;;2.55;;
74369;SDS011;71062;44.520;11.342;2023-11-19T11:01:47;4.57;;;2.50;;
74369;SDS011;71062;44.520;11.342;2023-11-19T11:04:18;5.28;;;2.90;;
74369;SDS011;71062;44.520;11.342;2023-11-19T11:06:48;4.20;;;2.53;;
74369;SDS011;71062;44.520;11.342;2023-11-19T11:09:15;4.25;;;2.40;;
74369;SDS011;71062;44.520;11.342;2023-11-19T11:11:43;4.75;;;2.83;;
74369;SDS011;71062;44.520;11.342;2023-11-19T11:14:12;4.30;;;2.65;;
74369;SDS011;71062;44.520;11.342;2023-11-19T11:16:42;5.57;;;2.53;;
74369;SDS011;71062;44.520;11.342;2023-11-19T11:19:12;6.53;;;2.72;;
74369;SDS011;71062;44.520;11.342;2023-11-19T11:21:39;5.32;;;2.63;;
74369;SDS011;71062;44.520;11.342;2023-11-19T11:27:14;8.13;;;2.65;;
74369;SDS011;71062;44.520;11.342;2023-11-19T11:29:55;6.47;;;2.80;;
74369;SDS011;71062;44.520;11.342;2023-11-19T11:34:58;5.35;;;3.00;;
74369;SDS011;71062;44.520;11.342;2023-11-19T11:38:01;5.75;;;2.83;;
74369;SDS011;71062;44.520;11.342;2023-11-19T11:40:31;4.60;;;2.88;;
74369;SDS011;71062;44.520;11.342;2023-11-19T11:42:57;4.78;;;2.80;;
74369;SDS011;71062;44.520;11.342;2023-11-19T11:45:39;5.82;;;2.80;;
74369;SDS011;71062;44.520;11.342;2023-11-19T11:48:09;5.95;;;3.05;;
74369;SDS011;71062;44.520;11.342;2023-11-19T11:50:49;5.15;;;2.72;;
74369;SDS011;71062;44.520;11.342;2023-11-19T11:53:21;5.20;;;2.85;;
74369;SDS011;71062;44.520;11.342;2023-11-19T11:58:18;5.68;;;3.00;;
74369;SDS011;71062;44.520;11.342;2023-11-19T12:00:44;4.53;;;2.63;;
74369;SDS011;71062;44.520;11.342;2023-11-19T12:03:12;6.05;;;2.67;;
74369;SDS011;71062;44.520;11.342;2023-11-19T12:05:38;4.90;;;2.78;;
74369;SDS011;71062;44.520;11.342;2023-11-19T12:08:07;5.82;;;3.53;;
74369;SDS011;71062;44.520;11.342;2023-11-19T12:10:45;4.90;;;2.63;;
74369;SDS011;71062;44.520;11.342;2023-11-19T12:13:14;5.95;;;2.80;;
74369;SDS011;71062;44.520;11.342;2023-11-19T12:18:28;5.13;;;2.92;;
74369;SDS011;71062;44.520;11.342;2023-11-19T12:20:57;5.38;;;3.00;;
74369;SDS011;71062;44.520;11.342;2023-11-19T12:23:30;7.30;;;3.22;;
74369;SDS011;71062;44.520;11.342;2023-11-19T12:25:56;5.20;;;3.00;;
74369;SDS011;71062;44.520;11.342;2023-11-19T12:28:23;5.03;;;3.00;;
74369;SDS011;71062;44.520;11.342;2023-11-19T12:30:52;7.22;;;3.20;;
74369;SDS011;71062;44.520;11.342;2023-11-19T12:35:46;7.25;;;3.17;;
74369;SDS011;71062;44.520;11.342;2023-11-19T12:38:22;5.97;;;3.20;;
74369;SDS011;71062;44.520;11.342;2023-11-19T12:41:02;7.15;;;3.67;;
74369;SDS011;71062;44.520;11.342;2023-11-19T12:43:29;5.00;;;3.08;;
74369;SDS011;71062;44.520;11.342;2023-11-19T12:45:55;6.72;;;3.13;;
74369;SDS011;71062;44.520;11.342;2023-11-19T12:48:20;4.72;;;2.67;;
74369;SDS011;71062;44.520;11.342;2023-11-19T12:50:56;7.10;;;3.00;;
74369;SDS011;71062;44.520;11.342;2023-11-19T12:53:23;5.47;;;3.10;;
74369;SDS011;71062;44.520;11.342;2023-11-19T12:55:50;6.55;;;3.38;;
74369;SDS011;71062;44.520;11.342;2023-11-19T13:03:33;6.22;;;2.85;;
74369;SDS011;71062;44.520;11.342;2023-11-19T13:06:04;8.55;;;2.85;;
74369;SDS011;71062;44.520;11.342;2023-11-19T13:08:51;4.63;;;2.42;;
74369;SDS011;71062;44.520;11.342;2023-11-19T13:11:33;4.60;;;2.30;;
74369;SDS011;71062;44.520;11.342;2023-11-19T13:14:01;4.88;;;2.05;;
74369;SDS011;71062;44.520;11.342;2023-11-19T13:16:35;3.80;;;2.10;;
74369;SDS011;71062;44.520;11.342;2023-11-19T13:19:02;6.63;;;2.65;;
74369;SDS011;71062;44.520;11.342;2023-11-19T13:21:28;5.97;;;2.50;;
74369;SDS011;71062;44.520;11.342;2023-11-19T13:23:57;5.05;;;2.40;;
74369;SDS011;71062;44.520;11.342;2023-11-19T13:26:22;5.72;;;2.42;;
74369;SDS011;71062;44.520;11.342;2023-11-19T13:28:48;5.20;;;2.38;;
74369;SDS011;71062;44.520;11.342;2023-11-19T13:31:14;4.72;;;2.03;;
74369;SDS011;71062;44.520;11.342;2023-11-19T13:33:40;4.65;;;2.50;;
74369;SDS011;71062;44.520;11.342;2023-11-19T13:36:07;6.43;;;2.53;;
74369;SDS011;71062;44.520;11.342;2023-11-19T13:38:33;4.88;;;2.47;;
74369;SDS011;71062;44.520;11.342;2023-11-19T13:41:00;7.22;;;2.45;;
74369;SDS011;71062;44.520;11.342;2023-11-19T13:43:27;8.38;;;2.53;;
74369;SDS011;71062;44.520;11.342;2023-11-19T13:45:56;3.95;;;2.25;;
74369;SDS011;71062;44.520;11.342;2023-11-19T13:48:23;6.00;;;2.42;;
74369;SDS011;71062;44.520;11.342;2023-11-19T13:50:50;5.25;;;2.58;;
74369;SDS011;71062;44.520;11.342;2023-11-19T13:53:16;5.68;;;2.33;;
74369;SDS011;71062;44.520;11.342;2023-11-19T13:55:42;5.35;;;2.58;;
74369;SDS011;71062;44.520;11.342;2023-11-19T13:58:08;6.28;;;2.88;;
74369;SDS011;71062;44.520;11.342;2023-11-19T14:00:34;5.72;;;2.60;;
74369;SDS011;71062;44.520;11.342;2023-11-19T14:03:00;7.63;;;3.55;;
74369;SDS011;71062;44.520;11.342;2023-11-19T14:05:26;7.85;;;3.53;;
74369;SDS011;71062;44.520;11.342;2023-11-19T14:07:51;5.55;;;2.92;;
74369;SDS011;71062;44.520;11.342;2023-11-19T14:10:18;6.60;;;3.22;;
74369;SDS011;71062;44.520;11.342;2023-11-19T14:12:44;5.38;;;2.50;;
74369;SDS011;71062;44.520;11.342;2023-11-19T14:15:10;4.53;;;2.80;;
74369;SDS011;71062;44.520;11.342;2023-11-19T14:17:38;5.43;;;2.30;;
74369;SDS011;71062;44.520;11.342;2023-11-19T14:20:05;7.90;;;2.80;;
74369;SDS011;71062;44.520;11.342;2023-11-19T14:22:44;5.45;;;2.78;;
74369;SDS011;71062;44.520;11.342;2023-11-19T14:25:14;5.20;;;2.67;;
74369;SDS011;71062;44.520;11.342;2023-11-19T14:27:41;5.10;;;2.60;;
74369;SDS011;71062;44.520;11.342;2023-11-19T14:30:09;6.68;;;2.75;;
74369;SDS011;71062;44.520;11.342;2023-11-19T14:32:37;10.35;;;2.92;;
74369;SDS011;71062;44.520;11.342;2023-11-19T14:35:06;9.95;;;5.90;;
74369;SDS011;71062;44.520;11.342;2023-11-19T14:37:32;11.52;;;5.07;;
74369;SDS011;71062;44.520;11.342;2023-11-19T14:39:59;7.25;;;3.53;;
74369;SDS011;71062;44.520;11.342;2023-11-19T14:42:25;5.28;;;2.92;;
74369;SDS011;71062;44.520;11.342;2023-11-19T14:44:52;6.53;;;2.92;;
74369;SDS011;71062;44.520;11.342;2023-11-19T14:47:18;6.38;;;3.30;;
74369;SDS011;71062;44.520;11.342;2023-11-19T14:49:45;6.25;;;3.38;;
74369;SDS011;71062;44.520;11.342;2023-11-19T14:52:11;5.53;;;3.13;;
74369;SDS011;71062;44.520;11.342;2023-11-19T14:54:37;7.85;;;3.80;;
74369;SDS011;71062;44.520;11.342;2023-11-19T14:57:06;8.43;;;4.32;;